Time;durP1;ratioP1;P1;durP2;ratioP2;P2;SDS_P1;SDS_P2;PMS_P1;PMS_P2;Temp;Humidity;BMP_temperature;BMP_pressure;BME280_temperature;BME280_humidity;BME280_pressure;Samples;Min_cycle;Max_cycle;Signal;HPM_P1;HPM_P2
2022/02/12 00:00:20;;;;;;;;;16.50;15.75;;;;;20.49;33.43;102884.13;5037277;28;51077;-47
2022/02/12 00:02:45;;;;;;;;;15.75;14.75;;;;;20.46;33.22;102888.94;5036721;28;50986;-49
2022/02/12 00:05:11;;;;;;;;;16.75;15.25;;;;;20.45;33.29;102895.47;5030247;28;51304;-52
2022/02/12 00:07:37;;;;;;;;;14.75;14.75;;;;;20.43;33.42;102885.69;5037082;28;51853;-51
2022/02/12 00:10:04;;;;;;;;;15.25;12.25;;;;;20.41;33.25;102882.19;5035757;28;51172;-52
2022/02/12 00:12:29;;;;;;;;;18.50;14.25;;;;;20.40;33.34;102880.47;5036882;28;51416;-50
2022/02/12 00:14:57;;;;;;;;;16.25;13.50;;;;;20.37;33.58;102881.69;5036173;28;51291;-52
2022/02/12 00:17:22;;;;;;;;;14.25;13.50;;;;;20.37;33.49;102873.44;5036954;28;51603;-52
2022/02/12 00:19:48;;;;;;;;;12.50;11.25;;;;;20.36;33.39;102876.34;5036507;28;51011;-53
2022/02/12 00:22:14;;;;;;;;;14.75;13.75;;;;;20.34;33.41;102867.41;5036774;28;51342;-49
2022/02/12 00:24:39;;;;;;;;;16.75;13.25;;;;;20.33;33.50;102868.47;5035611;28;51696;-52
2022/02/12 00:27:04;;;;;;;;;14.75;13.50;;;;;20.32;33.49;102861.19;5035591;28;51783;-48
2022/02/12 00:29:30;;;;;;;;;13.25;11.75;;;;;20.31;33.44;102859.50;5037086;28;51089;-52
2022/02/12 00:31:55;;;;;;;;;11.50;9.75;;;;;20.29;33.85;102865.16;5036302;28;51032;-49
2022/02/12 00:34:20;;;;;;;;;15.25;15.00;;;;;20.28;33.56;102862.59;5037198;28;51329;-52
2022/02/12 00:36:46;;;;;;;;;15.75;15.75;;;;;20.26;33.71;102862.78;5036085;28;51837;-53
2022/02/12 00:39:13;;;;;;;;;18.75;14.50;;;;;20.26;33.58;102862.78;5036807;28;51469;-50
2022/02/12 00:41:39;;;;;;;;;15.25;13.75;;;;;20.24;33.61;102856.59;5037084;28;51158;-52
2022/02/12 00:44:04;;;;;;;;;18.50;16.25;;;;;20.23;33.83;102862.25;5036851;28;51026;-52
2022/02/12 00:46:29;;;;;;;;;17.75;15.00;;;;;20.20;33.58;102860.69;5036765;28;52013;-48
2022/02/12 00:48:55;;;;;;;;;14.25;13.50;;;;;20.19;33.91;102862.59;5036091;28;51141;-50
2022/02/12 00:51:20;;;;;;;;;15.50;13.00;;;;;20.18;33.55;102852.63;5036850;28;51270;-52
2022/02/12 00:53:46;;;;;;;;;14.00;13.00;;;;;20.17;33.74;102852.78;5036299;28;50954;-52
2022/02/12 00:56:11;;;;;;;;;14.00;14.00;;;;;20.16;33.84;102856.56;5036384;28;51699;-50
2022/02/12 00:58:36;;;;;;;;;17.00;12.50;;;;;20.14;33.55;102853.16;5036382;28;51128;-51
2022/02/12 01:01:02;;;;;;;;;15.75;12.75;;;;;20.12;33.51;102844.22;5036350;28;51077;-53
2022/02/12 01:03:27;;;;;;;;;13.75;11.75;;;;;20.11;33.78;102843.34;5036753;28;50872;-52
2022/02/12 01:05:53;;;;;;;;;13.00;13.00;;;;;20.10;34.02;102841.59;5035988;28;51515;-50
2022/02/12 01:08:18;;;;;;;;;13.25;12.50;;;;;20.09;33.56;102842.63;5035920;28;51172;-46
2022/02/12 01:10:44;;;;;;;;;13.00;10.75;;;;;20.08;33.54;102838.16;5051013;28;51049;-48
2022/02/12 01:13:09;;;;;;;;;13.75;13.25;;;;;20.07;33.61;102833.69;5036738;28;51333;-49
2022/02/12 01:15:35;;;;;;;;;14.50;12.50;;;;;20.05;33.70;102827.53;5036165;28;51126;-47
2022/02/12 01:18:02;;;;;;;;;15.00;14.75;;;;;20.05;33.90;102823.91;5036370;28;51035;-51
2022/02/12 01:20:28;;;;;;;;;12.25;11.25;;;;;20.05;33.58;102818.41;5035842;28;51077;-52
2022/02/12 01:22:53;;;;;;;;;15.25;13.00;;;;;20.03;33.96;102815.84;5035899;28;51458;-53
2022/02/12 01:25:19;;;;;;;;;16.50;13.50;;;;;20.02;33.89;102816.00;5035847;28;53218;-50
2022/02/12 01:27:46;;;;;;;;;14.25;12.25;;;;;20.01;33.68;102817.91;5035904;28;51268;-51
2022/02/12 01:30:12;;;;;;;;;12.75;11.75;;;;;20.00;33.90;102809.78;5036352;28;51205;-53
2022/02/12 01:32:39;;;;;;;;;15.25;13.25;;;;;19.98;33.63;102807.22;5036230;28;51010;-47
2022/02/12 01:35:10;;;;;;;;;12.50;11.25;;;;;19.98;33.64;102798.09;5035733;28;51853;-52
2022/02/12 01:37:37;;;;;;;;;14.25;11.50;;;;;19.96;33.77;102800.19;5036022;28;51108;-50
2022/02/12 01:40:04;;;;;;;;;13.50;10.25;;;;;19.95;33.85;102798.47;5036420;28;51110;-51
2022/02/12 01:42:30;;;;;;;;;8.75;8.75;;;;;19.94;33.57;102799.50;5035951;28;51157;-50
2022/02/12 01:44:55;;;;;;;;;10.00;10.00;;;;;19.93;33.92;102798.63;5035826;28;51930;-49
2022/02/12 01:47:21;;;;;;;;;9.75;8.75;;;;;19.92;33.64;102804.31;5035359;28;51159;-48
2022/02/12 01:49:47;;;;;;;;;13.50;12.50;;;;;19.91;33.71;102800.69;5035543;28;51074;-52
2022/02/12 01:52:14;;;;;;;;;13.75;12.25;;;;;19.92;34.04;102801.56;5035665;28;51384;-52
2022/02/12 01:54:40;;;;;;;;;15.25;12.25;;;;;19.90;33.66;102796.22;5035675;28;52155;-51
2022/02/12 01:57:07;;;;;;;;;9.50;8.75;;;;;19.89;33.72;102789.84;5035256;28;51510;-52
2022/02/12 01:59:33;;;;;;;;;11.75;10.00;;;;;19.89;33.71;102791.75;5027727;28;51083;-52
2022/02/12 02:02:00;;;;;;;;;15.00;13.25;;;;;19.88;33.97;102781.78;5035758;28;51192;-50
2022/02/12 02:04:26;;;;;;;;;9.50;8.75;;;;;19.86;34.08;102781.94;5035337;28;52072;-51
2022/02/12 02:06:51;;;;;;;;;12.25;9.75;;;;;19.86;33.97;102781.09;5035545;28;51177;-47
2022/02/12 02:09:18;;;;;;;;;10.75;10.25;;;;;19.84;33.71;102764.75;5030178;28;51721;-53
2022/02/12 02:11:45;;;;;;;;;10.25;10.25;;;;;19.83;33.83;102756.69;5035231;28;51105;-48
2022/02/12 02:14:11;;;;;;;;;9.00;9.00;;;;;19.81;33.91;102742.25;5034932;28;52633;-48
2022/02/12 02:16:40;;;;;;;;;8.75;8.75;;;;;19.80;33.77;102749.66;5033744;28;51238;-46
2022/02/12 02:19:05;;;;;;;;;11.00;9.75;;;;;19.79;33.67;102745.16;5035646;28;51356;-49
2022/02/12 02:21:31;;;;;;;;;13.25;10.25;;;;;19.78;33.95;102742.59;5035437;28;51078;-49
2022/02/12 02:23:56;;;;;;;;;11.25;9.75;;;;;19.77;33.82;102741.72;5035231;28;51014;-52
2022/02/12 02:26:22;;;;;;;;;13.25;8.00;;;;;19.76;33.74;102741.91;5035333;28;51039;-53
2022/02/12 02:28:48;;;;;;;;;9.75;9.50;;;;;19.75;33.64;102734.69;5035479;28;51166;-51
2022/02/12 02:31:14;;;;;;;;;11.75;11.00;;;;;19.74;34.06;102735.72;5027497;28;51226;-48
2022/02/12 02:33:39;;;;;;;;;8.50;8.00;;;;;19.74;33.71;102731.06;5033773;28;51122;-49
2022/02/12 02:36:04;;;;;;;;;9.00;9.00;;;;;19.73;33.87;102723.00;5035321;28;51059;-52
2022/02/12 02:38:31;;;;;;;;;9.25;8.50;;;;;19.72;33.67;102729.53;5035165;28;51113;-52
2022/02/12 02:40:57;;;;;;;;;10.25;10.25;;;;;19.71;33.77;102720.44;5035402;28;51177;-49
2022/02/12 02:43:23;;;;;;;;;13.50;9.00;;;;;19.69;34.04;102716.13;5034943;28;51782;-51
2022/02/12 02:45:48;;;;;;;;;6.00;6.00;;;;;19.68;33.86;102718.00;5035208;28;51003;-50
2022/02/12 02:48:14;;;;;;;;;8.75;8.75;;;;;19.67;34.04;102715.44;5035169;28;51201;-51
2022/02/12 02:56:21;;;;;;;;;9.00;6.50;;;;;19.63;33.92;102698.44;5034862;28;51007;-52
2022/02/12 02:58:49;;;;;;;;;10.00;7.75;;;;;19.62;34.05;102693.97;5035103;28;51062;-51
2022/02/12 03:01:19;;;;;;;;;9.50;8.75;;;;;19.62;34.07;102699.47;5034966;28;51140;-52
2022/02/12 03:03:48;;;;;;;;;7.75;7.75;;;;;19.60;33.93;102690.53;5034581;28;51119;-52
2022/02/12 03:06:15;;;;;;;;;8.00;7.25;;;;;19.59;34.05;102684.19;5034680;28;51041;-51
2022/02/12 03:08:40;;;;;;;;;8.50;6.25;;;;;19.58;33.68;102679.69;5034820;28;51119;-50
2022/02/12 03:11:07;;;;;;;;;7.25;6.00;;;;;19.57;34.09;102664.22;5034963;28;50931;-52
2022/02/12 03:13:33;;;;;;;;;6.25;6.25;;;;;19.57;33.79;102674.38;5034521;28;51914;-51
2022/02/12 03:15:59;;;;;;;;;7.00;7.00;;;;;19.55;34.15;102659.91;5033966;28;51045;-52
2022/02/12 03:18:25;;;;;;;;;8.00;8.00;;;;;19.54;33.93;102658.19;5034553;28;51033;-51
2022/02/12 03:20:51;;;;;;;;;8.00;7.50;;;;;19.53;33.93;102660.09;5034572;28;51022;-52
2022/02/12 03:23:17;;;;;;;;;9.00;8.00;;;;;19.53;34.05;102653.72;5034452;28;51779;-54
2022/02/12 03:25:43;;;;;;;;;6.50;6.50;;;;;19.52;34.02;102652.88;5034535;28;51269;-48
2022/02/12 03:28:09;;;;;;;;;5.00;5.00;;;;;19.51;33.83;102639.31;5034646;28;51142;-51
2022/02/12 03:30:38;;;;;;;;;8.00;7.25;;;;;19.51;33.88;102642.91;5034296;28;50932;-48
2022/02/12 03:33:05;;;;;;;;;6.75;6.00;;;;;19.50;33.94;102646.69;5034729;28;51948;-49
2022/02/12 03:35:31;;;;;;;;;6.00;5.75;;;;;19.49;34.08;102638.63;5034483;28;51164;-48
2022/02/12 03:38:15;;;;;;;;;5.75;5.75;;;;;19.48;34.22;102639.63;5034700;28;50973;-46
2022/02/12 03:40:46;;;;;;;;;5.50;5.50;;;;;19.47;33.89;102644.25;5034590;28;51566;-48
2022/02/12 03:43:12;;;;;;;;;7.00;6.25;;;;;19.45;33.88;102638.09;5034374;28;51085;-50
2022/02/12 03:45:40;;;;;;;;;7.50;6.50;;;;;19.44;33.81;102633.63;5036779;28;51041;-47
2022/02/12 03:48:06;;;;;;;;;8.50;6.50;;;;;19.44;33.82;102630.88;5037936;28;51137;-47
2022/02/12 03:50:33;;;;;;;;;8.75;6.00;;;;;19.44;33.90;102632.78;5037775;28;51125;-48
2022/02/12 03:53:00;;;;;;;;;7.50;7.50;;;;;19.43;33.73;102631.06;5037218;28;52938;-51
2022/02/12 03:55:26;;;;;;;;;8.25;5.50;;;;;19.42;33.77;102621.97;5037645;28;51302;-50
2022/02/12 03:57:52;;;;;;;;;8.00;7.50;;;;;19.41;34.05;102624.88;5037799;28;51185;-51
2022/02/12 04:00:18;;;;;;;;;7.50;7.00;;;;;19.40;33.89;102621.28;5037805;28;51381;-49
2022/02/12 04:02:45;;;;;;;;;7.75;6.00;;;;;19.39;33.82;102611.31;5037435;28;51169;-51
2022/02/12 04:05:14;;;;;;;;;5.50;5.50;;;;;19.39;33.94;102607.72;5037002;28;51546;-52
2022/02/12 04:07:41;;;;;;;;;6.50;6.50;;;;;19.39;33.96;102605.81;5037722;28;51137;-52
2022/02/12 04:10:15;;;;;;;;;5.00;5.00;;;;;19.38;34.03;102606.81;5037169;28;51467;-53
2022/02/12 04:12:41;;;;;;;;;6.25;5.75;;;;;19.37;33.87;102599.63;5037254;28;51039;-48
2022/02/12 04:15:08;;;;;;;;;7.00;6.25;;;;;19.36;33.82;102597.03;5037325;28;51179;-52
2022/02/12 04:17:35;;;;;;;;;12.50;7.00;;;;;19.36;33.99;102600.66;5015967;28;51452;-53
2022/02/12 04:20:05;;;;;;;;;5.00;5.00;;;;;19.35;33.97;102595.31;5037630;28;51228;-51
2022/02/12 04:22:32;;;;;;;;;7.00;7.00;;;;;19.35;34.00;102598.06;5037311;28;51013;-51
2022/02/12 04:24:57;;;;;;;;;7.00;5.75;;;;;19.32;34.13;102596.53;5036835;28;51169;-49
2022/02/12 04:27:23;;;;;;;;;5.00;5.00;;;;;19.32;33.69;102588.28;5037138;28;51149;-52
2022/02/12 04:29:48;;;;;;;;;7.25;5.75;;;;;19.32;34.02;102588.28;5037871;28;51133;-49
2022/02/12 04:32:13;;;;;;;;;5.25;5.25;;;;;19.31;33.96;102584.69;5036944;28;51287;-51
2022/02/12 04:34:39;;;;;;;;;6.00;5.00;;;;;19.30;33.96;102582.13;5037293;28;51067;-50
2022/02/12 04:37:04;;;;;;;;;9.25;5.00;;;;;19.29;34.21;102585.91;5037123;28;51272;-52
2022/02/12 04:39:30;;;;;;;;;3.75;3.75;;;;;19.29;34.04;102574.91;5037121;28;51287;-51
2022/02/12 04:41:55;;;;;;;;;6.00;6.00;;;;;19.28;33.83;102575.94;5036912;28;51228;-50
2022/02/12 04:44:20;;;;;;;;;7.00;5.50;;;;;19.27;33.66;102574.19;5037142;28;51140;-53
2022/02/12 04:46:45;;;;;;;;;5.00;5.00;;;;;19.27;34.05;102565.97;5037331;28;51027;-50
2022/02/12 04:49:11;;;;;;;;;5.75;4.75;;;;;19.25;33.86;102571.63;5036961;28;51300;-49
2022/02/12 04:51:36;;;;;;;;;8.25;5.00;;;;;19.25;33.94;102582.63;5036841;28;51046;-46
2022/02/12 04:54:02;;;;;;;;;5.50;4.50;;;;;19.25;33.97;102576.28;5036068;28;51120;-48
2022/02/12 04:56:28;;;;;;;;;4.00;4.00;;;;;19.24;33.96;102582.81;5033524;28;51149;-47
2022/02/12 04:58:53;;;;;;;;;5.00;5.00;;;;;19.23;33.92;102583.84;5036926;28;51063;-51
2022/02/12 05:01:23;;;;;;;;;4.75;4.00;;;;;19.22;33.99;102582.97;5036436;28;51095;-51
2022/02/12 05:03:49;;;;;;;;;6.00;5.00;;;;;19.21;34.10;102580.41;5036891;28;51348;-53
2022/02/12 05:06:15;;;;;;;;;4.50;4.00;;;;;19.20;34.00;102571.31;5036468;28;52557;-50
2022/02/12 05:08:41;;;;;;;;;6.25;4.75;;;;;19.21;34.02;102574.91;5037079;28;51416;-49
2022/02/12 05:11:06;;;;;;;;;5.00;4.25;;;;;19.19;34.03;102566.00;5036671;28;51532;-52
2022/02/12 05:13:31;;;;;;;;;6.00;5.00;;;;;19.20;34.10;102573.19;5036452;28;51322;-53
2022/02/12 05:15:57;;;;;;;;;5.50;4.00;;;;;19.19;34.13;102566.00;5036699;28;51136;-50
2022/02/12 05:18:22;;;;;;;;;4.75;4.75;;;;;19.18;34.05;102561.53;5036863;28;51353;-52
2022/02/12 05:20:47;;;;;;;;;6.00;4.75;;;;;19.16;34.04;102561.66;5035908;28;51767;-51
2022/02/12 05:23:14;;;;;;;;;2.50;2.00;;;;;19.17;33.92;102565.28;5036515;28;51110;-52
2022/02/12 05:25:39;;;;;;;;;3.00;3.00;;;;;19.15;33.93;102550.88;5036472;28;51112;-53
2022/02/12 05:28:05;;;;;;;;;5.75;3.00;;;;;19.14;34.00;102552.75;5036140;28;51054;-51
2022/02/12 05:30:30;;;;;;;;;7.00;4.00;;;;;19.14;34.16;102551.91;5036239;28;51072;-51
2022/02/12 05:32:56;;;;;;;;;4.50;4.50;;;;;19.14;33.87;102551.91;5036572;28;50959;-53
2022/02/12 05:35:22;;;;;;;;;4.00;3.75;;;;;19.12;34.03;102546.56;5035975;28;51116;-49
2022/02/12 05:37:47;;;;;;;;;4.00;3.00;;;;;19.11;33.97;102535.78;5036487;28;51311;-50
2022/02/12 05:40:13;;;;;;;;;3.75;3.75;;;;;19.11;34.15;102535.78;5035911;28;51900;-47
2022/02/12 05:42:38;;;;;;;;;3.00;3.00;;;;;19.11;34.09;102538.50;5035709;28;51117;-51
2022/02/12 05:45:04;;;;;;;;;3.00;3.00;;;;;19.10;34.14;102525.81;5036013;28;51054;-51
2022/02/12 05:47:29;;;;;;;;;6.50;3.75;;;;;19.09;33.99;102538.69;5036078;28;51107;-49
2022/02/12 05:49:54;;;;;;;;;5.75;4.00;;;;;19.09;33.97;102527.72;5035779;28;51798;-53
2022/02/12 05:52:20;;;;;;;;;3.00;3.00;;;;;19.08;34.22;102516.91;5036352;28;51102;-51
2022/02/12 05:54:45;;;;;;;;;5.50;5.50;;;;;19.08;34.15;102519.63;5035627;28;51176;-51
2022/02/12 05:57:10;;;;;;;;;3.75;3.75;;;;;19.07;33.83;102515.16;5036320;28;51026;-49
2022/02/12 05:59:35;;;;;;;;;5.00;4.00;;;;;19.06;34.06;102507.94;5035770;28;51125;-53
2022/02/12 06:02:01;;;;;;;;;3.00;3.00;;;;;19.06;33.86;102507.94;5035851;28;50991;-47
2022/02/12 06:04:26;;;;;;;;;5.00;4.00;;;;;19.04;34.17;102511.72;5035956;28;51045;-50
2022/02/12 06:06:52;;;;;;;;;3.00;3.00;;;;;19.04;34.02;102508.97;5035941;28;51287;-52
2022/02/12 06:09:17;;;;;;;;;6.00;4.25;;;;;19.03;34.08;102503.66;5035409;28;51858;-51
2022/02/12 06:11:42;;;;;;;;;4.50;4.50;;;;;19.03;34.01;102500.91;5035401;28;51426;-50
2022/02/12 06:14:08;;;;;;;;;3.00;3.00;;;;;19.02;34.12;102494.56;5035773;28;51118;-52
2022/02/12 06:16:33;;;;;;;;;5.50;5.00;;;;;19.01;34.03;102495.59;5035643;28;51091;-52
2022/02/12 06:18:58;;;;;;;;;3.25;3.25;;;;;19.01;34.11;102498.34;5030391;28;51104;-51
2022/02/12 06:21:24;;;;;;;;;3.00;3.00;;;;;19.00;34.23;102504.88;5035299;28;51205;-52
2022/02/12 06:23:50;;;;;;;;;3.25;3.25;;;;;18.99;34.04;102500.41;5035686;28;51121;-49
2022/02/12 06:26:15;;;;;;;;;2.50;2.50;;;;;18.99;33.92;102500.41;5035678;28;51353;-52
2022/02/12 06:28:41;;;;;;;;;2.75;2.75;;;;;18.99;34.23;102500.41;5035127;28;51043;-48
2022/02/12 06:31:06;;;;;;;;;4.25;4.25;;;;;19.00;34.03;102493.03;5035699;28;50993;-48
2022/02/12 06:33:31;;;;;;;;;4.50;3.50;;;;;18.98;34.18;102493.22;5035740;28;51109;-46
2022/02/12 06:35:57;;;;;;;;;6.00;3.00;;;;;18.96;33.93;102489.75;5035425;28;50904;-50
2022/02/12 06:38:23;;;;;;;;;3.25;2.00;;;;;18.96;33.98;102487.00;5035044;28;52697;-52
2022/02/12 06:40:49;;;;;;;;;4.25;4.00;;;;;18.96;34.12;102484.25;5035174;28;50954;-50
2022/02/12 06:43:14;;;;;;;;;2.50;2.50;;;;;18.96;34.15;102484.25;5035512;28;51128;-50
2022/02/12 06:45:40;;;;;;;;;3.75;3.00;;;;;18.97;34.19;102485.16;5035621;28;51390;-52
2022/02/12 06:48:06;;;;;;;;;2.50;2.50;;;;;18.95;34.33;102478.94;5035083;28;51984;-52
2022/02/12 06:50:32;;;;;;;;;4.75;3.25;;;;;18.96;34.13;102480.66;5033770;28;51097;-48
2022/02/12 06:52:58;;;;;;;;;4.25;4.00;;;;;18.95;34.20;102479.81;5034781;28;51247;-51
2022/02/12 06:55:24;;;;;;;;;4.25;3.00;;;;;18.94;34.34;102482.72;5034941;28;51286;-51
2022/02/12 06:57:50;;;;;;;;;3.50;3.00;;;;;18.93;34.13;102481.88;5034772;28;52033;-51
2022/02/12 07:00:16;;;;;;;;;3.75;3.00;;;;;18.93;34.13;102486.50;5035285;28;51319;-49
2022/02/12 07:02:41;;;;;;;;;3.25;3.25;;;;;18.91;34.04;102486.69;5035112;28;51063;-48
2022/02/12 07:05:07;;;;;;;;;4.00;4.00;;;;;18.91;34.22;102480.34;5034432;28;51129;-50
2022/02/12 07:07:42;;;;;;;;;4.00;4.00;;;;;18.90;34.28;102487.72;5035017;28;51720;-51
2022/02/12 07:10:07;;;;;;;;;3.00;2.75;;;;;18.90;34.13;102484.97;5034418;28;51281;-52
2022/02/12 07:12:33;;;;;;;;;2.00;2.00;;;;;18.89;34.11;102477.75;5034215;28;51179;-50
2022/02/12 07:14:58;;;;;;;;;2.00;2.00;;;;;18.89;34.16;102482.41;5035428;28;51371;-52
2022/02/12 07:17:23;;;;;;;;;4.25;2.00;;;;;18.88;33.95;102487.03;5034152;28;50965;-51
2022/02/12 07:19:48;;;;;;;;;2.25;2.25;;;;;18.88;34.05;102486.19;5035716;28;51073;-50
2022/02/12 07:22:14;;;;;;;;;3.00;3.00;;;;;18.87;34.09;102485.31;5037998;28;51266;-50
2022/02/12 07:24:39;;;;;;;;;4.00;4.00;;;;;18.86;34.16;102489.09;5033090;28;51182;-52
2022/02/12 07:27:04;;;;;;;;;7.50;4.25;;;;;18.85;33.08;102486.50;5035111;28;52590;-48
2022/02/12 07:29:30;;;;;;;;;13.00;9.25;;;;;18.83;32.36;102485.81;5037603;28;51176;-48
2022/02/12 07:31:56;;;;;;;;;12.50;8.00;;;;;18.80;31.89;102488.91;5036765;28;51149;-49
2022/02/12 07:34:21;;;;;;;;;12.00;11.00;;;;;18.74;32.09;102468.47;5037705;28;51029;-46
2022/02/12 07:36:48;;;;;;;;;7.00;6.25;;;;;18.71;31.85;102477.94;5037539;28;51096;-50
2022/02/12 07:39:13;;;;;;;;;11.25;9.25;;;;;18.71;31.79;102482.56;5037815;28;51453;-49
2022/02/12 07:41:38;;;;;;;;;5.75;5.50;;;;;18.77;31.60;102478.28;5038215;28;51117;-51
2022/02/12 07:44:04;;;;;;;;;7.00;7.00;;;;;18.83;31.49;102481.19;5037520;28;51306;-52
2022/02/12 07:46:29;;;;;;;;;5.50;5.50;;;;;18.91;31.52;102483.94;5037861;28;50970;-53
2022/02/12 07:48:55;;;;;;;;;5.50;5.00;;;;;18.99;31.58;102497.66;5037540;28;51851;-47
2022/02/12 07:51:20;;;;;;;;;6.25;6.00;;;;;19.07;31.86;102487.69;5037328;28;51421;-49
2022/02/12 07:53:45;;;;;;;;;5.00;5.00;;;;;19.14;31.71;102489.56;5038403;28;51102;-51
2022/02/12 07:56:11;;;;;;;;;6.50;5.00;;;;;19.23;31.29;102491.28;5037396;28;52477;-48
2022/02/12 07:58:38;;;;;;;;;7.00;6.50;;;;;19.30;31.78;102492.31;5037392;28;51147;-51
2022/02/12 08:01:03;;;;;;;;;5.25;5.25;;;;;19.39;31.85;102492.28;5037630;28;51128;-48
2022/02/12 08:03:29;;;;;;;;;7.25;5.00;;;;;19.46;32.05;102483.16;5037576;28;51318;-49
2022/02/12 08:05:54;;;;;;;;;5.50;5.50;;;;;19.54;32.16;102480.38;5034719;28;51952;-48
2022/02/12 08:08:19;;;;;;;;;7.25;5.00;;;;;19.60;32.07;102487.97;5034839;28;51184;-50
2022/02/12 08:13:29;;;;;;;;;6.50;5.00;;;;;19.77;32.42;102501.63;5033319;28;51253;-52
2022/02/12 08:15:54;;;;;;;;;4.50;4.50;;;;;19.81;32.39;102498.38;5034278;28;51834;-50
2022/02/12 08:18:20;;;;;;;;;7.25;7.00;;;;;19.89;32.79;102500.19;5035403;28;51198;-49
2022/02/12 08:20:45;;;;;;;;;7.75;6.00;;;;;19.96;32.76;102501.22;5034597;28;51165;-50
2022/02/12 08:23:11;;;;;;;;;5.25;4.50;;;;;20.04;32.79;102498.44;5034455;28;51143;-48
2022/02/12 08:25:36;;;;;;;;;6.25;5.25;;;;;20.12;32.46;102501.16;5033299;28;51081;-52
2022/02/12 08:28:01;;;;;;;;;8.00;4.50;;;;;20.19;32.75;102487.50;5036131;28;51228;-50
2022/02/12 08:30:27;;;;;;;;;5.00;4.00;;;;;20.27;32.63;102484.72;5036063;28;51021;-51
2022/02/12 08:32:52;;;;;;;;;8.00;5.00;;;;;20.33;32.64;102494.16;5036459;28;50968;-53
2022/02/12 08:35:17;;;;;;;;;6.50;6.50;;;;;20.40;32.43;102484.97;5034256;28;51113;-49
2022/02/12 08:37:44;;;;;;;;;6.00;2.75;;;;;20.48;32.03;102484.09;5033795;28;51014;-51
2022/02/12 08:40:13;;;;;;;;;7.50;4.00;;;;;20.56;32.04;102486.78;5034322;28;51125;-51
2022/02/12 08:42:40;;;;;;;;;3.00;3.00;;;;;20.62;31.70;102483.28;5032609;28;51318;-53
2022/02/12 08:45:07;;;;;;;;;5.50;5.50;;;;;20.68;31.81;102477.06;5032305;28;51902;-52
2022/02/12 08:47:33;;;;;;;;;6.00;6.00;;;;;20.74;31.81;102473.56;5033685;28;51137;-57
2022/02/12 08:49:58;;;;;;;;;4.50;4.50;;;;;20.80;31.96;102463.69;5034504;28;51782;-52
2022/02/12 08:52:24;;;;;;;;;5.00;5.00;;;;;20.83;31.82;102467.97;5034012;28;51533;-54
2022/02/12 08:54:50;;;;;;;;;5.50;4.25;;;;;20.82;32.02;102474.53;5033010;28;52545;-50
2022/02/12 08:57:15;;;;;;;;;4.00;4.00;;;;;20.80;31.79;102480.22;5032764;28;51934;-51
2022/02/12 08:59:40;;;;;;;;;4.25;4.25;;;;;20.78;32.20;102464.94;5033823;28;51170;-51
2022/02/12 09:02:06;;;;;;;;;5.25;3.25;;;;;20.75;32.08;102460.66;5035375;28;51082;-48
2022/02/12 09:04:32;;;;;;;;;6.00;6.00;;;;;20.71;31.93;102462.91;5034954;28;52504;-51
2022/02/12 09:06:57;;;;;;;;;5.25;4.00;;;;;20.68;32.31;102465.19;5035218;28;51105;-51
2022/02/12 09:09:23;;;;;;;;;5.50;5.50;;;;;20.68;32.27;102459.69;5036636;28;51157;-50
2022/02/12 09:11:49;;;;;;;;;5.25;5.25;;;;;20.70;31.97;102463.94;5034128;28;51236;-52
2022/02/12 09:14:15;;;;;;;;;5.00;3.25;;;;;20.74;31.77;102447.94;5036227;28;51962;-51
2022/02/12 09:16:41;;;;;;;;;5.50;5.00;;;;;20.78;32.06;102446.50;5033683;28;51362;-49
2022/02/12 09:19:07;;;;;;;;;7.75;5.00;;;;;20.85;31.91;102457.66;5032857;28;51864;-50
2022/02/12 09:21:33;;;;;;;;;5.25;3.50;;;;;20.89;32.13;102445.19;5030243;28;51097;-48
2022/02/12 09:23:59;;;;;;;;;5.25;5.25;;;;;20.93;31.90;102443.78;5035692;28;51081;-48
2022/02/12 09:26:30;;;;;;;;;8.50;6.00;;;;;20.97;31.92;102443.22;5034962;28;51029;-49
2022/02/12 09:28:57;;;;;;;;;7.25;4.50;;;;;21.02;32.20;102442.66;5033177;28;51219;-48
2022/02/12 09:31:22;;;;;;;;;5.00;4.00;;;;;21.06;32.42;102440.41;5034012;28;51650;-51
2022/02/12 09:33:48;;;;;;;;;4.00;4.00;;;;;21.10;32.35;102441.72;5033896;28;52762;-53
2022/02/12 09:36:13;;;;;;;;;6.50;4.25;;;;;21.10;31.95;102439.81;5032165;28;51153;-51
2022/02/12 09:38:38;;;;;;;;;6.50;4.75;;;;;21.08;32.08;102439.16;5031320;28;51145;-55
2022/02/12 09:41:04;;;;;;;;;5.75;4.00;;;;;21.07;32.76;102431.09;5032461;28;51090;-46
2022/02/12 09:43:30;;;;;;;;;5.25;4.00;;;;;21.05;32.85;102445.06;5032827;28;51867;-47
2022/02/12 09:46:13;;;;;;;;;4.50;4.50;;;;;21.03;32.76;102434.19;5029340;28;51208;-51
2022/02/12 09:48:40;;;;;;;;;4.25;4.25;;;;;21.02;32.82;102424.22;5031953;28;51216;-48
2022/02/12 09:51:06;;;;;;;;;6.50;6.50;;;;;21.01;32.52;102421.66;5034989;28;50929;-48
2022/02/12 09:53:32;;;;;;;;;10.50;7.75;;;;;20.99;32.57;102426.50;5035154;28;52076;-50
2022/02/12 09:55:58;;;;;;;;;8.50;5.50;;;;;20.97;32.56;102414.81;5035298;28;51225;-51
2022/02/12 09:58:24;;;;;;;;;7.25;7.00;;;;;20.95;32.74;102416.91;5035363;28;51024;-52
2022/02/12 10:00:49;;;;;;;;;6.50;6.25;;;;;20.94;33.01;102429.81;5035639;28;50963;-51
2022/02/12 10:03:15;;;;;;;;;10.00;10.00;;;;;20.92;31.68;102414.53;5035184;28;51821;-52
2022/02/12 10:05:53;;;;;;;;;13.00;10.25;;;;;20.88;31.05;102415.94;5033898;28;51018;-52
2022/02/12 10:08:19;;;;;;;;;12.75;9.50;;;;;20.83;30.97;102419.25;5035145;28;51157;-54
2022/02/12 10:10:46;;;;;;;;;13.00;12.50;;;;;20.78;30.70;102407.09;5034902;28;51363;-56
2022/02/12 10:13:20;;;;;;;;;14.25;12.25;;;;;20.73;31.78;102405.75;5034480;28;52643;-55
2022/02/12 10:15:51;;;;;;;;;15.75;13.00;;;;;20.69;31.54;102398.91;5033678;28;51108;-58
2022/02/12 10:18:20;;;;;;;;;10.25;8.25;;;;;20.66;31.12;102388.28;5027540;28;51145;-55
2022/02/12 10:20:46;;;;;;;;;13.75;9.00;;;;;20.66;31.78;102382.75;5035256;28;51497;-53
2022/02/12 10:23:11;;;;;;;;;12.00;9.00;;;;;20.66;31.51;102384.66;5034617;28;51199;-54
2022/02/12 10:25:40;;;;;;;;;12.50;9.75;;;;;20.66;31.46;102382.75;5034530;28;51009;-54
2022/02/12 10:28:06;;;;;;;;;64.25;37.75;;;;;20.65;31.80;102381.06;5035109;28;51256;-53
2022/02/12 10:30:32;;;;;;;;;37.50;21.00;;;;;20.66;31.93;102373.66;5034689;28;51033;-55
2022/02/12 10:33:03;;;;;;;;;29.50;17.00;;;;;20.67;32.06;102375.34;5034860;28;51527;-53
2022/02/12 10:35:30;;;;;;;;;17.50;15.75;;;;;20.66;31.87;102377.25;5034443;28;51348;-54
2022/02/12 10:38:07;;;;;;;;;17.75;12.25;;;;;20.65;31.40;102364.53;5034783;28;51217;-51
2022/02/12 10:40:34;;;;;;;;;14.00;10.00;;;;;20.63;31.38;102358.34;5034657;28;51343;-53
2022/02/12 10:42:59;;;;;;;;;12.00;10.75;;;;;20.61;30.73;102356.81;5034882;28;51225;-54
2022/02/12 10:45:26;;;;;;;;;14.75;12.50;;;;;20.59;30.44;102351.50;5034502;28;51018;-53
2022/02/12 10:47:53;;;;;;;;;17.50;13.00;;;;;20.57;30.70;102361.00;5034137;28;51151;-54
2022/02/12 10:50:20;;;;;;;;;10.00;8.25;;;;;20.54;30.39;102351.22;5034256;28;51159;-54
2022/02/12 10:52:47;;;;;;;;;12.75;10.00;;;;;20.53;30.63;102355.03;5034200;28;51145;-50
2022/02/12 10:55:35;;;;;;;;;19.50;9.00;;;;;20.53;30.59;102352.28;5032864;28;51386;-53
2022/02/12 10:58:05;;;;;;;;;13.50;9.75;;;;;20.54;31.00;102347.63;5032383;28;51081;-50
2022/02/12 11:00:32;;;;;;;;;12.00;9.00;;;;;20.54;31.06;102348.47;5034738;28;51086;-52
2022/02/12 11:03:00;;;;;;;;;9.75;8.50;;;;;20.56;31.51;102349.13;5033443;28;52298;-52
2022/02/12 11:05:27;;;;;;;;;14.00;10.25;;;;;20.58;31.67;102348.94;5033708;28;51354;-54
2022/02/12 11:07:53;;;;;;;;;9.50;7.75;;;;;20.61;31.94;102346.66;5033770;28;51106;-51
2022/02/12 11:10:20;;;;;;;;;12.25;10.25;;;;;20.74;31.93;102344.13;5034734;28;51035;-54
2022/02/12 11:12:47;;;;;;;;;12.25;10.50;;;;;20.93;31.88;102339.09;5033876;28;51344;-52
2022/02/12 11:15:12;;;;;;;;;14.00;10.00;;;;;21.12;31.78;102322.00;5033918;28;52410;-54
2022/02/12 11:17:38;;;;;;;;;11.50;9.50;;;;;21.31;31.65;102329.72;5030490;28;51858;-57
2022/02/12 11:20:08;;;;;;;;;12.25;10.00;;;;;21.48;31.24;102312.97;5030545;28;51180;-58
2022/02/12 11:22:34;;;;;;;;;13.50;11.50;;;;;21.55;31.52;102309.22;5033803;28;50980;-50